Time;durP1;ratioP1;P1;durP2;ratioP2;P2;SDS_P1;SDS_P2;PMS_P1;PMS_P2;Temp;Humidity;BMP_temperature;BMP_pressure;BME280_temperature;BME280_humidity;BME280_pressure;Samples;Min_cycle;Max_cycle;Signal;HPM_P1;HPM_P2
2021/04/15 00:01:33;;;;;;;7.07;5.17;;;4.60;99.90;;;;;;5012181;28;20259;-63
2021/04/15 00:03:59;;;;;;;7.13;5.80;;;4.60;99.90;;;;;;5012293;28;20184;-63
2021/04/15 00:06:27;;;;;;;7.37;5.63;;;4.50;99.90;;;;;;5012223;28;20176;-64
2021/04/15 00:08:54;;;;;;;6.63;5.57;;;4.50;99.90;;;;;;5012380;28;20203;-63
2021/04/15 00:11:23;;;;;;;7.30;5.50;;;4.50;99.90;;;;;;5012033;28;20701;-63
2021/04/15 00:13:51;;;;;;;10.07;5.73;;;4.40;99.90;;;;;;5011475;28;20730;-63
2021/04/15 00:16:18;;;;;;;8.87;5.73;;;4.30;99.90;;;;;;5012383;28;20196;-63
2021/04/15 00:18:44;;;;;;;10.80;6.30;;;4.30;99.90;;;;;;5012243;28;20713;-63
2021/04/15 00:21:11;;;;;;;9.17;6.60;;;4.30;99.90;;;;;;5011608;28;20622;-63
2021/04/15 00:23:37;;;;;;;9.17;6.40;;;4.20;99.90;;;;;;5012330;28;20185;-63
2021/04/15 00:26:05;;;;;;;7.77;6.30;;;4.10;99.90;;;;;;5011944;28;20735;-63
2021/04/15 00:28:31;;;;;;;8.70;6.40;;;4.00;99.90;;;;;;5011828;28;20342;-63
2021/04/15 00:30:57;;;;;;;10.37;7.27;;;4.00;99.90;;;;;;5011102;28;20491;-63
2021/04/15 00:33:23;;;;;;;11.13;7.93;;;3.90;99.90;;;;;;5012008;28;20241;-63
2021/04/15 00:35:49;;;;;;;10.70;6.73;;;3.90;99.90;;;;;;5011433;28;20314;-65
2021/04/15 00:38:16;;;;;;;12.70;7.13;;;3.80;99.90;;;;;;5011642;28;20290;-63
2021/04/15 00:40:44;;;;;;;9.57;6.43;;;3.70;99.90;;;;;;5011485;28;20574;-63
2021/04/15 00:43:10;;;;;;;11.47;7.57;;;3.60;99.90;;;;;;5011481;28;20187;-63
2021/04/15 00:45:41;;;;;;;8.73;7.83;;;3.50;99.90;;;;;;5011801;28;20188;-63
2021/04/15 00:48:26;;;;;;;8.13;7.13;;;3.40;99.90;;;;;;5011414;28;20909;-63
2021/04/15 00:50:58;;;;;;;9.10;7.97;;;3.30;99.90;;;;;;5011461;28;20247;-63
2021/04/15 00:53:38;;;;;;;7.90;7.10;;;3.20;99.90;;;;;;5011416;28;20188;-63
2021/04/15 00:56:04;;;;;;;13.97;8.73;;;3.10;99.90;;;;;;5011287;28;20200;-63
2021/04/15 00:58:31;;;;;;;13.27;7.47;;;3.00;99.90;;;;;;5011764;28;20200;-63
2021/04/15 01:00:56;;;;;;;12.17;8.10;;;3.00;99.90;;;;;;5011159;28;20176;-63
2021/04/15 01:03:22;;;;;;;10.27;8.30;;;2.90;99.90;;;;;;5011267;28;20188;-63
2021/04/15 01:05:49;;;;;;;14.03;9.43;;;2.80;99.90;;;;;;5011590;28;20176;-63
2021/04/15 01:08:16;;;;;;;10.07;8.80;;;2.80;99.90;;;;;;5011261;28;20278;-63
2021/04/15 01:10:46;;;;;;;12.10;8.03;;;2.70;99.90;;;;;;5011025;28;20168;-63
2021/04/15 01:13:48;;;;;;;10.67;9.13;;;2.70;99.90;;;;;;5009580;28;20278;-63
2021/04/15 01:16:37;;;;;;;12.00;8.53;;;2.60;99.90;;;;;;5011289;28;20207;-63
2021/04/15 01:19:54;;;;;;;13.73;9.30;;;2.60;99.90;;;;;;5011003;28;20705;-63
2021/04/15 01:22:58;;;;;;;12.57;10.57;;;2.60;99.90;;;;;;5011320;28;20182;-63
2021/04/15 01:25:29;;;;;;;14.93;11.60;;;2.50;99.90;;;;;;4992001;28;20180;-63
2021/04/15 01:28:10;;;;;;;17.10;11.67;;;2.50;99.90;;;;;;5003501;28;20199;-63
2021/04/15 01:30:48;;;;;;;14.60;11.93;;;2.40;99.90;;;;;;5010955;28;20191;-63
2021/04/15 01:33:28;;;;;;;14.27;11.83;;;2.40;99.90;;;;;;5011084;28;20250;-63
2021/04/15 01:36:00;;;;;;;17.47;12.33;;;2.40;99.90;;;;;;5010667;28;20295;-63
2021/04/15 01:38:38;;;;;;;18.30;12.30;;;2.30;99.90;;;;;;5011663;28;20265;-63
2021/04/15 01:41:10;;;;;;;16.77;12.77;;;2.30;99.90;;;;;;5010736;28;20237;-63
2021/04/15 01:43:48;;;;;;;17.83;12.43;;;2.20;99.90;;;;;;5011710;28;20172;-63
2021/04/15 01:46:17;;;;;;;15.87;12.63;;;2.20;99.90;;;;;;5011446;28;20168;-63
2021/04/15 01:48:50;;;;;;;16.93;13.50;;;2.10;99.90;;;;;;5010783;28;20810;-63
2021/04/15 01:51:20;;;;;;;19.00;14.10;;;2.10;99.90;;;;;;4991331;28;20173;-63
2021/04/15 01:54:03;;;;;;;16.83;13.53;;;2.00;99.90;;;;;;5002545;28;20217;-63
2021/04/15 01:56:50;;;;;;;20.67;13.73;;;2.00;99.90;;;;;;5011187;28;20200;-63
2021/04/15 01:59:20;;;;;;;20.17;13.60;;;2.00;99.90;;;;;;5010821;28;20537;-63
2021/04/15 02:01:55;;;;;;;17.70;14.33;;;1.90;99.90;;;;;;5017003;28;20178;-67
2021/04/15 02:04:35;;;;;;;23.40;14.30;;;1.90;99.90;;;;;;5016884;28;20263;-68
2021/04/15 02:07:14;;;;;;;22.27;14.50;;;1.90;99.90;;;;;;5015950;28;20241;-68
2021/04/15 02:09:42;;;;;;;19.87;15.57;;;1.80;99.90;;;;;;5016144;28;20654;-69
2021/04/15 02:12:23;;;;;;;20.33;15.63;;;1.80;99.90;;;;;;5014783;28;20241;-66
2021/04/15 02:15:03;;;;;;;21.40;14.77;;;1.70;99.90;;;;;;5016204;28;20168;-66
2021/04/15 02:17:35;;;;;;;20.50;15.33;;;1.70;99.90;;;;;;5015281;28;20220;-66
2021/04/15 02:20:05;;;;;;;20.43;16.10;;;1.60;99.90;;;;;;5016300;28;20345;-69
2021/04/15 02:22:43;;;;;;;22.77;15.83;;;1.50;99.90;;;;;;5018802;28;20246;-69
2021/04/15 02:25:17;;;;;;;23.63;16.30;;;1.50;99.90;;;;;;5000750;28;20695;-66
2021/04/15 02:27:55;;;;;;;23.23;15.40;;;1.40;99.90;;;;;;5013508;28;20196;-68
2021/04/15 02:30:41;;;;;;;24.40;16.20;;;1.40;99.90;;;;;;5019722;28;20175;-68
2021/04/15 02:33:44;;;;;;;22.90;16.43;;;1.30;99.90;;;;;;5019668;28;20172;-68
2021/04/15 02:36:10;;;;;;;21.23;15.73;;;1.20;99.90;;;;;;5019477;28;20226;-65
2021/04/15 02:39:01;;;;;;;29.30;16.40;;;1.20;99.90;;;;;;5019799;28;20218;-66
2021/04/15 02:41:32;;;;;;;23.37;16.30;;;1.10;99.90;;;;;;5019199;28;20527;-68
2021/04/15 02:44:17;;;;;;;22.03;15.80;;;1.00;99.90;;;;;;5019891;28;20184;-68
2021/04/15 02:46:48;;;;;;;24.33;17.47;;;1.20;99.90;;;;;;5019100;28;20167;-66
2021/04/15 02:49:16;;;;;;;26.13;17.23;;;1.20;99.90;;;;;;5020590;28;20164;-69
2021/04/15 02:51:52;;;;;;;28.57;18.20;;;1.10;99.90;;;;;;5023170;28;20173;-69
2021/04/15 02:54:37;;;;;;;27.70;18.27;;;1.10;99.90;;;;;;5004467;28;20679;-69
2021/04/15 02:57:31;;;;;;;27.33;18.70;;;1.10;99.90;;;;;;5007509;28;20208;-66
2021/04/15 03:00:06;;;;;;;31.73;20.10;;;1.00;99.90;;;;;;5009554;28;20634;-67
2021/04/15 03:02:46;;;;;;;29.07;20.50;;;1.10;99.90;;;;;;5023934;28;20182;-69
2021/04/15 03:05:17;;;;;;;27.90;20.97;;;1.10;99.90;;;;;;5022104;28;20184;-67
2021/04/15 03:07:44;;;;;;;29.07;22.03;;;1.10;99.90;;;;;;5019553;28;20188;-66
2021/04/15 03:10:16;;;;;;;32.97;21.00;;;1.10;99.90;;;;;;5019543;28;20180;-67
2021/04/15 03:12:48;;;;;;;29.13;21.87;;;1.10;99.90;;;;;;5019476;28;20176;-67
2021/04/15 03:15:20;;;;;;;35.93;23.27;;;1.00;99.90;;;;;;5019698;28;20196;-67
2021/04/15 03:17:50;;;;;;;32.57;23.80;;;1.00;99.90;;;;;;5019699;28;20244;-69
2021/04/15 03:20:23;;;;;;;40.20;23.17;;;1.00;99.90;;;;;;5020019;28;20244;-68
2021/04/15 03:22:55;;;;;;;32.80;24.07;;;1.00;99.90;;;;;;5020389;28;20208;-70
2021/04/15 03:25:20;;;;;;;33.73;23.93;;;1.00;99.90;;;;;;5019067;28;20638;-68
2021/04/15 03:28:11;;;;;;;45.90;24.47;;;0.90;99.90;;;;;;5019871;28;20202;-70
2021/04/15 03:30:43;;;;;;;34.13;23.70;;;0.90;99.90;;;;;;5018963;28;20538;-70
2021/04/15 03:33:17;;;;;;;36.17;27.30;;;0.90;99.90;;;;;;5019872;28;20188;-69
2021/04/15 03:35:46;;;;;;;44.73;29.73;;;0.90;99.90;;;;;;5020790;28;20230;-68
2021/04/15 03:38:22;;;;;;;43.50;31.67;;;0.90;99.90;;;;;;5020015;28;20258;-70
2021/04/15 03:40:56;;;;;;;50.30;34.27;;;0.90;99.90;;;;;;5020449;28;20164;-66
2021/04/15 03:43:32;;;;;;;55.67;37.57;;;0.90;99.90;;;;;;5018932;28;20222;-69
2021/04/15 03:46:18;;;;;;;59.70;40.13;;;0.90;99.90;;;;;;5019572;28;20176;-69
2021/04/15 03:49:13;;;;;;;54.80;38.10;;;0.90;99.90;;;;;;5017453;28;20211;-69
2021/04/15 03:51:47;;;;;;;53.67;36.37;;;0.90;99.90;;;;;;5016739;28;20188;-65
2021/04/15 03:54:17;;;;;;;62.90;40.37;;;0.90;99.90;;;;;;5020077;28;20233;-68
2021/04/15 03:56:53;;;;;;;62.60;40.77;;;0.70;99.90;;;;;;5010961;28;20208;-69
2021/04/15 03:59:51;;;;;;;59.93;39.80;;;0.70;99.90;;;;;;5019740;28;20556;-67
2021/04/15 04:02:31;;;;;;;56.97;38.57;;;0.70;99.90;;;;;;5014480;28;20176;-64
2021/04/15 04:05:07;;;;;;;62.60;40.40;;;0.60;99.90;;;;;;5012528;28;20254;-63
2021/04/15 04:07:47;;;;;;;66.17;41.37;;;0.60;99.90;;;;;;5012097;28;20188;-63
2021/04/15 04:10:35;;;;;;;55.27;39.60;;;0.50;99.90;;;;;;5012338;28;20164;-63
2021/04/15 04:13:30;;;;;;;66.30;40.00;;;0.40;99.90;;;;;;5012303;28;20545;-64
2021/04/15 04:16:14;;;;;;;58.10;39.27;;;0.40;99.90;;;;;;5012663;28;20605;-63
2021/04/15 04:19:05;;;;;;;53.07;35.33;;;0.40;99.90;;;;;;5011875;28;20270;-64
2021/04/15 04:21:45;;;;;;;54.67;37.53;;;0.30;99.90;;;;;;5011983;28;20255;-64
2021/04/15 04:24:40;;;;;;;52.87;34.27;;;0.30;99.90;;;;;;5012106;28;20178;-64
2021/04/15 04:27:13;;;;;;;54.77;34.50;;;0.30;99.90;;;;;;5012209;28;20217;-64
2021/04/15 04:30:09;;;;;;;52.40;32.50;;;0.20;99.90;;;;;;5011425;28;20192;-64
2021/04/15 04:32:36;;;;;;;47.47;29.67;;;0.20;99.90;;;;;;5011700;28;20207;-63
2021/04/15 04:35:03;;;;;;;44.77;31.00;;;0.20;99.90;;;;;;5011785;28;20231;-63
2021/04/15 04:37:38;;;;;;;52.00;29.67;;;0.30;99.90;;;;;;5012009;28;20275;-64
2021/04/15 04:40:13;;;;;;;41.63;25.33;;;0.30;99.90;;;;;;4992147;28;20227;-64
2021/04/15 04:42:47;;;;;;;43.57;26.83;;;0.30;99.90;;;;;;5010927;28;20184;-64
2021/04/15 04:45:16;;;;;;;40.73;27.30;;;0.30;99.90;;;;;;5011149;28;20183;-64
2021/04/15 04:48:29;;;;;;;33.03;22.40;;;0.40;99.90;;;;;;5012171;28;20215;-64
2021/04/15 04:51:10;;;;;;;43.40;25.63;;;0.40;99.90;;;;;;5005974;28;20551;-64
2021/04/15 04:53:41;;;;;;;46.53;27.57;;;0.50;99.90;;;;;;5011960;28;20567;-63
2021/04/15 04:56:29;;;;;;;43.63;28.17;;;0.50;99.90;;;;;;5011425;28;20214;-63
2021/04/15 04:59:13;;;;;;;42.97;27.00;;;0.60;99.90;;;;;;5011883;28;20740;-64
2021/04/15 05:01:40;;;;;;;47.00;29.37;;;0.50;99.90;;;;;;5010176;28;20195;-63
2021/04/15 05:04:06;;;;;;;46.30;30.57;;;0.50;99.90;;;;;;5011866;28;20172;-64
2021/04/15 05:06:43;;;;;;;45.00;30.53;;;0.50;99.90;;;;;;5011844;28;20222;-63
2021/04/15 05:09:13;;;;;;;47.10;28.37;;;0.50;99.90;;;;;;5011501;28;20184;-63
2021/04/15 05:11:42;;;;;;;42.03;28.47;;;0.50;99.90;;;;;;5011763;28;20732;-63
2021/04/15 05:14:09;;;;;;;47.63;28.10;;;0.50;99.90;;;;;;5012002;28;20195;-64
2021/04/15 05:16:59;;;;;;;45.03;29.60;;;0.60;99.90;;;;;;5011794;28;20291;-63
2021/04/15 05:19:25;;;;;;;46.90;29.20;;;0.60;99.90;;;;;;5011654;28;20176;-64
2021/04/15 05:21:51;;;;;;;46.53;29.23;;;0.70;99.90;;;;;;5011618;28;20373;-64
2021/04/15 05:24:36;;;;;;;44.93;29.07;;;0.80;99.90;;;;;;5011538;28;20665;-63
2021/04/15 05:27:03;;;;;;;48.87;30.93;;;0.80;99.90;;;;;;5011579;28;20206;-64
2021/04/15 05:29:34;;;;;;;75.50;45.67;;;0.90;99.90;;;;;;5010896;28;20176;-62
2021/04/15 05:32:00;;;;;;;93.57;60.33;;;1.00;99.90;;;;;;5011349;28;20168;-64
2021/04/15 05:34:43;;;;;;;109.20;70.00;;;1.10;99.90;;;;;;5011599;28;20187;-64
2021/04/15 05:37:15;;;;;;;94.90;63.70;;;1.20;99.90;;;;;;5010930;28;20227;-64
2021/04/15 05:39:41;;;;;;;89.80;63.70;;;1.20;99.90;;;;;;5012204;28;20172;-64
2021/04/15 05:42:25;;;;;;;88.10;58.87;;;1.30;99.90;;;;;;5011194;28;20605;-64
2021/04/15 05:45:00;;;;;;;76.70;48.17;;;1.40;99.90;;;;;;5011555;28;20271;-64
2021/04/15 05:47:29;;;;;;;78.77;52.20;;;1.50;99.90;;;;;;5011557;28;20678;-64
2021/04/15 05:50:06;;;;;;;68.77;47.30;;;1.60;99.90;;;;;;5008285;28;20630;-64
2021/04/15 05:52:43;;;;;;;61.03;39.93;;;1.70;99.90;;;;;;5011423;28;20223;-63
2021/04/15 05:55:16;;;;;;;66.30;44.33;;;1.70;99.90;;;;;;5009823;28;20180;-64
2021/04/15 05:57:48;;;;;;;70.67;47.67;;;1.80;99.90;;;;;;5007592;28;20567;-64
2021/04/15 06:00:23;;;;;;;67.07;46.27;;;1.80;99.90;;;;;;5014723;28;20180;-64
2021/04/15 06:03:10;;;;;;;71.63;44.27;;;1.90;99.90;;;;;;5005852;28;20198;-64
2021/04/15 06:05:48;;;;;;;62.90;40.13;;;2.10;99.90;;;;;;5002703;28;20176;-63
2021/04/15 06:08:14;;;;;;;59.73;43.63;;;2.40;99.90;;;;;;5013318;28;20200;-63
2021/04/15 06:10:40;;;;;;;68.57;50.07;;;2.70;99.90;;;;;;5014452;28;20176;-64
2021/04/15 06:13:14;;;;;;;66.60;52.13;;;3.00;99.90;;;;;;5014350;28;20615;-64
2021/04/15 06:15:53;;;;;;;68.53;50.40;;;3.30;99.90;;;;;;5014370;28;20199;-64
2021/04/15 06:18:28;;;;;;;54.00;44.07;;;3.60;99.90;;;;;;5014200;28;20294;-64
2021/04/15 06:21:17;;;;;;;42.97;35.47;;;3.90;99.90;;;;;;5014161;28;20175;-65
2021/04/15 06:24:06;;;;;;;32.20;28.23;;;4.30;99.90;;;;;;5014379;28;20279;-63
2021/04/15 06:26:51;;;;;;;24.43;20.60;;;4.60;99.90;;;;;;5014639;28;20184;-65
2021/04/15 06:29:44;;;;;;;25.97;18.03;;;4.90;99.90;;;;;;5013952;28;20234;-65
2021/04/15 06:32:34;;;;;;;16.93;14.73;;;5.30;99.90;;;;;;5014321;28;20187;-64
2021/04/15 06:34:59;;;;;;;19.50;13.27;;;5.70;99.90;;;;;;5014045;28;20180;-65
2021/04/15 06:37:45;;;;;;;12.53;11.13;;;6.10;99.90;;;;;;5013986;28;20215;-64
2021/04/15 06:40:33;;;;;;;15.23;11.13;;;6.30;99.90;;;;;;5012713;28;20711;-65
2021/04/15 06:43:14;;;;;;;12.83;9.30;;;6.50;99.90;;;;;;5013745;28;20551;-64
2021/04/15 06:46:06;;;;;;;11.77;9.63;;;6.80;99.90;;;;;;5014000;28;20176;-64
2021/04/15 06:48:35;;;;;;;11.97;9.47;;;7.10;99.90;;;;;;5013678;28;20286;-64
2021/04/15 06:51:29;;;;;;;12.47;10.20;;;7.40;99.90;;;;;;5012117;28;20180;-64
2021/04/15 06:54:06;;;;;;;14.70;9.90;;;7.70;99.90;;;;;;5013579;28;20635;-64
2021/04/15 06:57:02;;;;;;;12.90;11.57;;;7.70;99.90;;;;;;5012898;28;20207;-65
2021/04/15 07:00:04;;;;;;;14.80;9.87;;;7.50;99.90;;;;;;4994209;28;20248;-64
2021/04/15 07:02:54;;;;;;;11.87;9.00;;;7.60;99.90;;;;;;5007725;28;20638;-65
2021/04/15 07:05:26;;;;;;;10.53;8.97;;;7.80;99.90;;;;;;5012242;28;20653;-65
2021/04/15 07:08:10;;;;;;;14.17;10.43;;;7.80;99.90;;;;;;5012603;28;20235;-64
2021/04/15 07:10:57;;;;;;;11.10;9.83;;;7.60;99.90;;;;;;5013413;28;20251;-64
2021/04/15 07:13:55;;;;;;;10.67;8.83;;;7.80;99.90;;;;;;5013153;28;20189;-65
2021/04/15 07:16:21;;;;;;;13.70;9.50;;;8.20;99.90;;;;;;5013343;28;20548;-65
2021/04/15 07:19:18;;;;;;;12.30;9.17;;;8.60;99.90;;;;;;5013252;28;20266;-64
2021/04/15 07:22:22;;;;;;;11.40;8.63;;;8.80;99.90;;;;;;5012825;28;20180;-64
2021/04/15 07:25:13;;;;;;;12.90;9.13;;;9.10;99.90;;;;;;5013269;28;20203;-63
2021/04/15 07:28:06;;;;;;;13.27;9.07;;;9.50;99.90;;;;;;5012841;28;20211;-64
2021/04/15 07:30:49;;;;;;;12.13;9.20;;;9.50;99.90;;;;;;5012824;28;20187;-64
2021/04/15 07:33:40;;;;;;;10.57;9.40;;;9.70;99.90;;;;;;5012044;28;20642;-64
2021/04/15 07:36:23;;;;;;;12.00;9.30;;;9.90;99.90;;;;;;5012733;28;20223;-64
2021/04/15 07:39:05;;;;;;;10.73;9.57;;;10.00;99.90;;;;;;5012891;28;20661;-64
2021/04/15 07:41:44;;;;;;;12.60;9.17;;;10.20;99.90;;;;;;4993134;28;20209;-64
2021/04/15 07:44:32;;;;;;;10.50;8.10;;;10.70;99.90;;;;;;4993841;28;20204;-64
2021/04/15 07:47:31;;;;;;;10.37;8.67;;;11.20;99.90;;;;;;4993202;28;20169;-64
2021/04/15 07:50:31;;;;;;;11.63;9.30;;;11.40;99.90;;;;;;4992951;28;20565;-64
2021/04/15 07:53:47;;;;;;;12.70;9.40;;;11.80;99.90;;;;;;4999032;28;20264;-64
2021/04/15 07:56:37;;;;;;;10.17;8.90;;;11.80;99.90;;;;;;4971402;28;20206;-64
2021/04/15 07:59:07;;;;;;;12.00;8.13;;;11.90;99.90;;;;;;4971010;28;20356;-64
2021/04/15 08:01:54;;;;;;;13.87;9.23;;;12.10;99.90;;;;;;5001787;28;20180;-63
2021/04/15 08:04:53;;;;;;;12.03;9.60;;;11.60;99.90;;;;;;5012350;28;20230;-64
2021/04/15 08:07:42;;;;;;;12.07;8.83;;;11.10;99.90;;;;;;5012259;28;20275;-64
2021/04/15 08:10:19;;;;;;;11.23;9.20;;;10.50;99.90;;;;;;5012097;28;20164;-64
2021/04/15 08:13:12;;;;;;;10.80;8.63;;;10.00;99.90;;;;;;5012231;28;20176;-64
2021/04/15 08:15:59;;;;;;;12.07;8.90;;;10.20;99.90;;;;;;5012270;28;20192;-63
2021/04/15 08:18:54;;;;;;;13.50;9.43;;;10.10;99.90;;;;;;5011428;28;20696;-64
2021/04/15 08:21:31;;;;;;;14.80;9.33;;;10.10;99.90;;;;;;4992619;28;20252;-64
2021/04/15 08:24:07;;;;;;;10.77;9.20;;;10.20;99.90;;;;;;5005298;28;20271;-64
2021/04/15 08:27:25;;;;;;;10.87;9.00;;;10.40;99.90;;;;;;5012061;28;20191;-64
2021/04/15 08:30:16;;;;;;;12.23;8.43;;;10.70;99.90;;;;;;4951361;29;20240;-64
2021/04/15 08:33:12;;;;;;;12.73;8.60;;;10.70;99.90;;;;;;4992489;28;20176;-64
2021/04/15 08:36:00;;;;;;;11.37;7.63;;;10.90;99.90;;;;;;4992327;28;20200;-64
2021/04/15 08:38:44;;;;;;;10.57;6.93;;;11.00;99.90;;;;;;4995905;28;20199;-64
2021/04/15 08:41:34;;;;;;;10.17;7.47;;;11.50;99.90;;;;;;5011751;28;20179;-64
2021/04/15 08:44:17;;;;;;;11.77;7.90;;;12.20;99.90;;;;;;5011753;28;20593;-64
2021/04/15 08:47:07;;;;;;;8.43;7.03;;;12.70;99.90;;;;;;5011962;28;20232;-64
2021/04/15 08:49:51;;;;;;;12.83;7.20;;;13.30;99.90;;;;;;5011611;28;20537;-64
2021/04/15 08:52:40;;;;;;;9.00;6.60;;;13.20;99.90;;;;;;5011882;28;20547;-64
2021/04/15 08:55:24;;;;;;;8.80;7.47;;;12.60;99.90;;;;;;4972271;28;20536;-64
2021/04/15 08:58:10;;;;;;;9.40;6.80;;;11.90;99.90;;;;;;5007721;28;20215;-64
2021/04/15 09:00:42;;;;;;;10.07;6.23;;;11.70;99.90;;;;;;5011489;28;20672;-64
2021/04/15 09:03:31;;;;;;;11.33;6.53;;;11.40;99.90;;;;;;5011417;28;20168;-64
2021/04/15 09:06:19;;;;;;;9.83;7.03;;;11.40;99.90;;;;;;5011817;28;20183;-64
2021/04/15 09:08:58;;;;;;;8.87;5.63;;;11.50;99.90;;;;;;5011642;28;20672;-63
2021/04/15 09:11:34;;;;;;;7.27;5.03;;;11.70;99.90;;;;;;5011045;28;20601;-64
2021/04/15 09:14:27;;;;;;;8.17;5.63;;;11.50;99.90;;;;;;5011574;28;20679;-64
2021/04/15 09:16:58;;;;;;;7.03;5.47;;;11.10;99.90;;;;;;5010907;28;20568;-64
2021/04/15 09:20:01;;;;;;;7.77;5.50;;;10.70;99.90;;;;;;5019163;22;20366;-63
2021/04/15 09:22:49;;;;;;;9.07;5.27;;;10.40;99.90;;;;;;5001656;28;20183;-64
2021/04/15 09:25:30;;;;;;;6.93;4.97;;;10.20;99.90;;;;;;5011781;28;20195;-63
2021/04/15 09:28:11;;;;;;;6.87;5.17;;;10.00;99.90;;;;;;4997850;28;20219;-64
2021/04/15 09:30:40;;;;;;;9.17;5.13;;;9.80;99.90;;;;;;4993391;28;20169;-63
2021/04/15 09:33:28;;;;;;;7.87;4.90;;;10.20;99.90;;;;;;4995540;28;20539;-64
2021/04/15 09:36:15;;;;;;;8.80;4.83;;;11.30;99.90;;;;;;4995893;28;20574;-65
2021/04/15 09:38:57;;;;;;;8.43;4.57;;;12.60;99.90;;;;;;4995840;28;20287;-64
2021/04/15 09:41:46;;;;;;;6.47;4.40;;;13.10;99.90;;;;;;4995949;28;20169;-63
2021/04/15 09:44:33;;;;;;;7.90;4.80;;;12.50;99.90;;;;;;4976888;28;20173;-64
2021/04/15 09:47:40;;;;;;;9.17;5.20;;;12.40;99.90;;;;;;4982671;28;20199;-64
2021/04/15 09:50:21;;;;;;;7.80;4.47;;;11.90;99.90;;;;;;4994667;28;20248;-63
2021/04/15 09:53:10;;;;;;;9.80;4.13;;;11.80;99.90;;;;;;4995155;28;20239;-65
2021/04/15 09:55:42;;;;;;;10.20;5.33;;;11.70;99.90;;;;;;4995499;28;20694;-63
2021/04/15 09:58:16;;;;;;;6.67;3.90;;;11.70;99.90;;;;;;4993899;28;20633;-63
2021/04/15 10:00:52;;;;;;;6.03;3.73;;;11.80;99.90;;;;;;4995221;28;20607;-64
2021/04/15 10:03:54;;;;;;;6.43;3.80;;;12.40;99.90;;;;;;4995220;28;20208;-64
2021/04/15 10:06:32;;;;;;;5.43;3.57;;;13.30;99.90;;;;;;4994619;28;20176;-65
2021/04/15 10:08:57;;;;;;;5.10;3.50;;;14.10;99.90;;;;;;4995053;28;20193;-65
2021/04/15 10:11:26;;;;;;;5.50;3.73;;;14.20;99.90;;;;;;4995077;28;20204;-65
2021/04/15 10:14:00;;;;;;;6.40;3.53;;;14.60;99.90;;;;;;4993718;28;20665;-64
2021/04/15 10:16:43;;;;;;;5.77;3.33;;;15.10;99.90;;;;;;4994786;28;20200;-64
2021/04/15 10:19:21;;;;;;;5.67;3.57;;;15.70;99.90;;;;;;4994910;28;20604;-64
2021/04/15 10:22:03;;;;;;;5.53;3.30;;;15.70;99.90;;;;;;4994170;28;20204;-64
2021/04/15 10:24:35;;;;;;;3.83;2.90;;;15.90;99.90;;;;;;4994910;28;20514;-65
2021/04/15 10:27:25;;;;;;;5.77;3.10;;;15.50;99.90;;;;;;4975345;28;20236;-64
2021/04/15 10:30:10;;;;;;;4.53;2.97;;;15.00;99.90;;;;;;4977358;28;20192;-64
2021/04/15 10:32:39;;;;;;;5.07;3.00;;;14.10;99.90;;;;;;4994824;28;20173;-63
2021/04/15 10:35:28;;;;;;;6.17;3.03;;;13.50;99.90;;;;;;4994510;28;20185;-64
2021/04/15 10:38:31;;;;;;;4.20;2.73;;;13.00;99.90;;;;;;4994166;28;20193;-64
2021/04/15 10:41:27;;;;;;;4.90;2.80;;;12.70;99.90;;;;;;4973479;28;20205;-64
2021/04/15 10:44:04;;;;;;;4.50;3.40;;;13.20;99.90;;;;;;4986110;28;20180;-64
2021/04/15 10:46:52;;;;;;;5.43;3.07;;;14.00;99.90;;;;;;4994428;28;20577;-65
2021/04/15 10:49:33;;;;;;;7.27;3.20;;;15.10;99.90;;;;;;4994069;28;20207;-64
2021/04/15 10:52:06;;;;;;;4.33;2.70;;;15.60;99.90;;;;;;4994162;28;20173;-64
2021/04/15 10:54:40;;;;;;;3.57;2.70;;;15.30;99.90;;;;;;4994346;28;20215;-64
2021/04/15 10:57:18;;;;;;;4.50;3.20;;;15.30;99.90;;;;;;4994428;28;20654;-65
2021/04/15 10:59:47;;;;;;;3.77;3.07;;;14.90;99.90;;;;;;4993907;28;20208;-64
2021/04/15 11:02:21;;;;;;;5.13;3.03;;;14.70;99.90;;;;;;4994168;28;20173;-64
2021/04/15 11:04:48;;;;;;;5.10;3.20;;;14.00;99.90;;;;;;4992694;28;20189;-64
2021/04/15 11:07:18;;;;;;;9.97;2.73;;;13.00;99.90;;;;;;4994220;28;20176;-64
2021/04/15 11:09:50;;;;;;;4.23;2.80;;;12.70;99.90;;;;;;4993401;28;20231;-65
2021/04/15 11:12:16;;;;;;;10.20;4.40;;;12.60;99.90;;;;;;4994252;28;20177;-64
2021/04/15 11:14:44;;;;;;;4.50;2.93;;;13.30;99.90;;;;;;4993894;28;20725;-64
2021/04/15 11:17:19;;;;;;;5.03;3.00;;;14.30;99.90;;;;;;4992656;28;20258;-64
2021/04/15 11:19:46;;;;;;;4.40;2.93;;;14.90;99.90;;;;;;4993371;28;20503;-64
2021/04/15 11:22:18;;;;;;;5.67;3.30;;;15.00;99.90;;;;;;4993849;28;20201;-64
2021/04/15 11:24:44;;;;;;;2.97;2.67;;;14.80;99.90;;;;;;4993589;28;20642;-65
2021/04/15 11:27:10;;;;;;;5.80;2.90;;;14.90;99.90;;;;;;4993856;28;20177;-64
2021/04/15 11:29:46;;;;;;;6.53;2.60;;;15.10;99.90;;;;;;4993346;28;20254;-64
2021/04/15 11:32:30;;;;;;;5.63;3.10;;;15.00;99.90;;;;;;4993625;28;20177;-64
2021/04/15 11:35:01;;;;;;;3.77;2.90;;;14.60;99.80;;;;;;4993565;28;20180;-64
2021/04/15 11:37:27;;;;;;;3.33;2.80;;;13.80;99.90;;;;;;4993207;28;20291;-64
2021/04/15 11:40:31;;;;;;;6.43;2.97;;;13.40;99.90;;;;;;4993148;28;20223;-64
2021/04/15 11:42:59;;;;;;;4.93;2.77;;;14.00;99.90;;;;;;4993226;28;20184;-64
2021/04/15 11:45:34;;;;;;;4.43;2.50;;;15.00;99.90;;;;;;4993593;28;20547;-65
2021/04/15 11:48:30;;;;;;;4.27;2.60;;;15.50;99.70;;;;;;4992917;28;20214;-65
2021/04/15 11:51:15;;;;;;;6.07;2.80;;;16.20;99.50;;;;;;4973223;28;20191;-64
2021/04/15 11:53:55;;;;;;;4.17;3.10;;;16.20;99.60;;;;;;4992968;28;20180;-64
2021/04/15 11:56:24;;;;;;;2.47;2.27;;;16.40;98.20;;;;;;4993310;28;20205;-64
2021/04/15 11:58:54;;;;;;;3.90;3.33;;;16.40;96.80;;;;;;4992729;28;20249;-64
2021/04/15 12:01:27;;;;;;;4.97;2.40;;;16.10;95.80;;;;;;4992958;28;20176;-64
2021/04/15 12:04:05;;;;;;;3.33;2.47;;;15.80;96.80;;;;;;4992603;28;20204;-64
2021/04/15 12:06:39;;;;;;;3.73;2.50;;;15.10;96.00;;;;;;4993453;28;20263;-64
2021/04/15 12:09:07;;;;;;;3.43;2.87;;;14.20;95.70;;;;;;4992610;28;20219;-64
2021/04/15 12:11:44;;;;;;;3.83;2.70;;;13.40;96.30;;;;;;4992466;28;20188;-64
2021/04/15 12:14:13;;;;;;;5.07;2.67;;;13.60;98.70;;;;;;4991151;28;20393;-65
2021/04/15 12:16:51;;;;;;;3.03;2.33;;;14.60;97.80;;;;;;4991691;28;20213;-65
2021/04/15 12:19:50;;;;;;;4.80;2.47;;;15.20;97.80;;;;;;4992319;28;20223;-65
2021/04/15 12:22:19;;;;;;;3.43;2.83;;;15.50;97.60;;;;;;4992489;28;20200;-65
2021/04/15 12:24:48;;;;;;;3.37;2.60;;;15.10;97.10;;;;;;4991433;28;20235;-64
2021/04/15 12:27:24;;;;;;;3.87;2.77;;;14.60;97.10;;;;;;4992434;28;20635;-65
2021/04/15 12:30:17;;;;;;;3.50;2.50;;;14.20;96.60;;;;;;4992546;28;20180;-64
2021/04/15 12:32:58;;;;;;;4.13;2.70;;;13.70;97.20;;;;;;4973188;28;20185;-64
2021/04/15 12:35:48;;;;;;;5.87;2.73;;;12.90;96.40;;;;;;4973366;28;20193;-64
2021/04/15 12:38:26;;;;;;;2.77;2.23;;;12.70;96.20;;;;;;4975293;28;20239;-64
2021/04/15 12:40:58;;;;;;;7.20;2.50;;;12.60;96.10;;;;;;4991931;28;20547;-64
2021/04/15 12:43:36;;;;;;;5.07;3.10;;;12.50;99.20;;;;;;4992067;28;20608;-64
2021/04/15 12:46:14;;;;;;;5.00;2.87;;;12.80;97.80;;;;;;4992165;28;20169;-65
2021/04/15 12:48:56;;;;;;;3.40;2.23;;;13.10;97.10;;;;;;4992191;28;20236;-64
2021/04/15 12:51:25;;;;;;;3.10;2.20;;;13.30;97.20;;;;;;4992138;28;20639;-64
2021/04/15 12:53:51;;;;;;;7.63;2.77;;;13.70;97.90;;;;;;4990816;28;20181;-64
2021/04/15 12:56:24;;;;;;;4.83;2.90;;;14.10;97.00;;;;;;4992542;28;20287;-64
2021/04/15 12:58:54;;;;;;;3.63;2.50;;;13.90;97.90;;;;;;4991700;28;20686;-65
2021/04/15 13:01:20;;;;;;;3.67;2.43;;;13.90;96.70;;;;;;4992235;28;20567;-65
2021/04/15 13:03:46;;;;;;;3.20;2.90;;;13.60;96.50;;;;;;4991667;28;20311;-65
2021/04/15 13:06:21;;;;;;;3.27;2.50;;;13.60;96.80;;;;;;4991634;28;20201;-64
2021/04/15 13:08:54;;;;;;;4.47;2.93;;;13.50;96.40;;;;;;4992065;28;20614;-64
2021/04/15 13:11:20;;;;;;;4.30;2.70;;;13.30;96.90;;;;;;4992042;28;20189;-64
2021/04/15 13:14:00;;;;;;;4.83;2.50;;;13.30;96.60;;;;;;4991677;28;20189;-64
2021/04/15 13:16:32;;;;;;;3.73;2.57;;;13.40;96.50;;;;;;4992157;28;20205;-64
2021/04/15 13:19:04;;;;;;;5.67;2.80;;;14.20;96.00;;;;;;4991468;28;20216;-65
2021/04/15 13:21:35;;;;;;;3.17;2.40;;;15.10;97.40;;;;;;4991937;28;20180;-66
2021/04/15 13:24:21;;;;;;;4.53;2.80;;;15.80;95.70;;;;;;4991759;28;20203;-65
2021/04/15 13:26:47;;;;;;;5.67;2.70;;;16.60;97.20;;;;;;4992211;28;20184;-64
2021/04/15 13:29:19;;;;;;;6.53;2.93;;;17.20;95.90;;;;;;4991880;28;20208;-65
2021/04/15 13:31:52;;;;;;;6.10;2.40;;;17.50;95.40;;;;;;4991552;28;20199;-64
2021/04/15 13:34:49;;;;;;;3.57;2.50;;;17.40;94.30;;;;;;4992106;28;20188;-65
2021/04/15 13:37:29;;;;;;;5.67;3.20;;;17.20;94.30;;;;;;4990272;28;20575;-64
2021/04/15 13:40:28;;;;;;;4.07;3.20;;;16.60;94.60;;;;;;4991528;28;20211;-64
2021/04/15 13:42:55;;;;;;;5.60;3.40;;;15.60;92.30;;;;;;4991683;28;20670;-64